ARG2437 LICJ-LICR
Flight info
| Callsign | ARG2437 |
|---|---|
| Flight time | 0h 33m |
| Altitude | 19000 |
| Route | PAL M871 NOTRI Q72 BERMI |
| Aircraft | B737/M-SDE2E3FGHIRWXY/LB1 |
Departure
| Time | 2026-04-22 23:16 |
|---|---|
| Airport | Falcone–Borsellino Airport (LICJ) |
Arrival
| Time | 2026-04-22 23:50 |
|---|---|
| Airport | Reggio Calabria Airport (LICR) |
| Time | Latitude | Longitude | Altitude | Speed | Heading |
|---|---|---|---|---|---|
| 2026-04-22 22:48 | 38.18569 | 13.10665 | 52 ft | 0 kts | 337° |
| 2026-04-22 23:04 | 38.18550 | 13.10676 | 52 ft | 4 kts | 333° |
| 2026-04-22 23:04 | 38.18526 | 13.10693 | 51 ft | 4 kts | 322° |
| 2026-04-22 23:04 | 38.18510 | 13.10717 | 52 ft | 4 kts | 279° |
| 2026-04-22 23:05 | 38.18510 | 13.10730 | 52 ft | 1 kts | 247° |
| 2026-04-22 23:07 | 38.18509 | 13.10729 | 52 ft | 1 kts | 247° |
| 2026-04-22 23:07 | 38.18502 | 13.10707 | 52 ft | 5 kts | 247° |
| 2026-04-22 23:08 | 38.18481 | 13.10645 | 47 ft | 10 kts | 247° |
| 2026-04-22 23:08 | 38.18444 | 13.10547 | 49 ft | 14 kts | 231° |
| 2026-04-22 23:08 | 38.18348 | 13.10475 | 48 ft | 18 kts | 216° |
| 2026-04-22 23:08 | 38.18243 | 13.10366 | 49 ft | 21 kts | 212° |
| 2026-04-22 23:09 | 38.18159 | 13.10198 | 52 ft | 24 kts | 246° |
| 2026-04-22 23:09 | 38.18087 | 13.09988 | 49 ft | 27 kts | 246° |
| 2026-04-22 23:09 | 38.18010 | 13.09764 | 51 ft | 27 kts | 246° |
| 2026-04-22 23:09 | 38.17938 | 13.09552 | 50 ft | 25 kts | 247° |
| 2026-04-22 23:10 | 38.17872 | 13.09353 | 52 ft | 23 kts | 247° |
| 2026-04-22 23:10 | 38.17811 | 13.09167 | 50 ft | 22 kts | 247° |
| 2026-04-22 23:10 | 38.17779 | 13.09070 | 50 ft | 11 kts | 247° |
| 2026-04-22 23:10 | 38.17750 | 13.08983 | 51 ft | 10 kts | 243° |
| 2026-04-22 23:11 | 38.17704 | 13.08916 | 52 ft | 10 kts | 217° |
| 2026-04-22 23:11 | 38.17654 | 13.08869 | 52 ft | 0 kts | 217° |
| 2026-04-22 23:15 | 38.17649 | 13.08865 | 52 ft | 4 kts | 217° |
| 2026-04-22 23:15 | 38.17608 | 13.08825 | 49 ft | 11 kts | 217° |
| 2026-04-22 23:15 | 38.17521 | 13.08765 | 50 ft | 14 kts | 178° |
| 2026-04-22 23:15 | 38.17520 | 13.08921 | 49 ft | 42 kts | 67° |
| 2026-04-22 23:16 | 38.17749 | 13.09586 | 49 ft | 119 kts | 66° |
| 2026-04-22 23:16 | 38.18161 | 13.10784 | 205 ft | 165 kts | 65° |
| 2026-04-22 23:16 | 38.18635 | 13.12105 | 1126 ft | 160 kts | 65° |
| 2026-04-22 23:16 | 38.19098 | 13.13343 | 2195 ft | 151 kts | 64° |
| 2026-04-22 23:17 | 38.19564 | 13.14577 | 2937 ft | 166 kts | 66° |
| 2026-04-22 23:17 | 38.20051 | 13.16096 | 3281 ft | 203 kts | 67° |
| 2026-04-22 23:17 | 38.20613 | 13.17857 | 3733 ft | 226 kts | 67° |
| 2026-04-22 23:17 | 38.21238 | 13.19770 | 4529 ft | 234 kts | 60° |
| 2026-04-22 23:18 | 38.22223 | 13.21409 | 5556 ft | 235 kts | 47° |
| 2026-04-22 23:18 | 38.23280 | 13.22981 | 6510 ft | 240 kts | 47° |
| 2026-04-22 23:18 | 38.24372 | 13.24617 | 7446 ft | 245 kts | 47° |
| 2026-04-22 23:18 | 38.25485 | 13.26296 | 8365 ft | 251 kts | 47° |
| 2026-04-22 23:19 | 38.26620 | 13.28017 | 9240 ft | 257 kts | 47° |
| 2026-04-22 23:19 | 38.27783 | 13.29784 | 10107 ft | 262 kts | 47° |
| 2026-04-22 23:19 | 38.28855 | 13.31691 | 10970 ft | 272 kts | 63° |
| 2026-04-22 23:19 | 38.29176 | 13.34090 | 11787 ft | 284 kts | 95° |
| 2026-04-22 23:20 | 38.28462 | 13.36435 | 12573 ft | 291 kts | 130° |
| 2026-04-22 23:20 | 38.27057 | 13.38298 | 13410 ft | 293 kts | 139° |
| 2026-04-22 23:20 | 38.25345 | 13.39665 | 14189 ft | 292 kts | 168° |
| 2026-04-22 23:20 | 38.23370 | 13.39896 | 15021 ft | 285 kts | 194° |
| 2026-04-22 23:21 | 38.21464 | 13.39116 | 15391 ft | 297 kts | 216° |
| 2026-04-22 23:21 | 38.19807 | 13.37437 | 15627 ft | 316 kts | 229° |
| 2026-04-22 23:21 | 38.18147 | 13.35409 | 15814 ft | 343 kts | 229° |
| 2026-04-22 23:21 | 38.16365 | 13.33218 | 16053 ft | 367 kts | 229° |
| 2026-04-22 23:22 | 38.14515 | 13.30969 | 16614 ft | 377 kts | 228° |
| 2026-04-22 23:22 | 38.12597 | 13.28668 | 17378 ft | 382 kts | 228° |
| 2026-04-22 23:22 | 38.10484 | 13.26573 | 18085 ft | 395 kts | 213° |
| 2026-04-22 23:22 | 38.07846 | 13.25405 | 18744 ft | 411 kts | 195° |
| 2026-04-22 23:23 | 38.04956 | 13.25439 | 19024 ft | 429 kts | 172° |
| 2026-04-22 23:23 | 38.02104 | 13.26865 | 19026 ft | 455 kts | 150° |
| 2026-04-22 23:23 | 37.99704 | 13.29602 | 19028 ft | 475 kts | 129° |
| 2026-04-22 23:23 | 37.98108 | 13.33265 | 19044 ft | 476 kts | 111° |
| 2026-04-22 23:24 | 37.96977 | 13.37215 | 19030 ft | 477 kts | 107° |
| 2026-04-22 23:24 | 37.95955 | 13.41215 | 19020 ft | 477 kts | 109° |
| 2026-04-22 23:24 | 37.94792 | 13.45151 | 19023 ft | 477 kts | 111° |
| 2026-04-22 23:24 | 37.93546 | 13.49056 | 19020 ft | 477 kts | 112° |
| 2026-04-22 23:25 | 37.92291 | 13.52889 | 19028 ft | 477 kts | 112° |
| 2026-04-22 23:25 | 37.91024 | 13.56766 | 19029 ft | 478 kts | 112° |
| 2026-04-22 23:25 | 37.89763 | 13.60666 | 19023 ft | 478 kts | 112° |
| 2026-04-22 23:25 | 37.88512 | 13.64564 | 19029 ft | 478 kts | 112° |
| 2026-04-22 23:26 | 37.87264 | 13.68468 | 19017 ft | 478 kts | 111° |
| 2026-04-22 23:26 | 37.86028 | 13.72370 | 19033 ft | 477 kts | 111° |
| 2026-04-22 23:26 | 37.84797 | 13.76268 | 19027 ft | 478 kts | 111° |
| 2026-04-22 23:26 | 37.83563 | 13.80181 | 19029 ft | 479 kts | 111° |
| 2026-04-22 23:27 | 37.82327 | 13.84088 | 19029 ft | 479 kts | 111° |
| 2026-04-22 23:27 | 37.81087 | 13.87998 | 19035 ft | 478 kts | 111° |
| 2026-04-22 23:27 | 37.79847 | 13.91902 | 19035 ft | 478 kts | 111° |
| 2026-04-22 23:27 | 37.78602 | 13.95810 | 19036 ft | 478 kts | 111° |
| 2026-04-22 23:28 | 37.77361 | 13.99703 | 19041 ft | 478 kts | 111° |
| 2026-04-22 23:28 | 37.76111 | 14.03597 | 19032 ft | 478 kts | 112° |
| 2026-04-22 23:28 | 37.74851 | 14.07484 | 19033 ft | 478 kts | 112° |
| 2026-04-22 23:28 | 37.73585 | 14.11371 | 19038 ft | 478 kts | 112° |
| 2026-04-22 23:29 | 37.72317 | 14.15259 | 19034 ft | 479 kts | 112° |
| 2026-04-22 23:29 | 37.71049 | 14.19147 | 19035 ft | 479 kts | 112° |
| 2026-04-22 23:29 | 37.69782 | 14.23030 | 19043 ft | 479 kts | 112° |
| 2026-04-22 23:29 | 37.68512 | 14.26921 | 19049 ft | 478 kts | 112° |
| 2026-04-22 23:30 | 37.67243 | 14.30804 | 19050 ft | 479 kts | 112° |
| 2026-04-22 23:30 | 37.65973 | 14.34686 | 19051 ft | 478 kts | 112° |
| 2026-04-22 23:30 | 37.64720 | 14.38518 | 19048 ft | 479 kts | 112° |
| 2026-04-22 23:30 | 37.63432 | 14.42445 | 19051 ft | 479 kts | 112° |
| 2026-04-22 23:31 | 37.62157 | 14.46326 | 19041 ft | 478 kts | 112° |
| 2026-04-22 23:31 | 37.60888 | 14.50202 | 19051 ft | 478 kts | 112° |
| 2026-04-22 23:31 | 37.59643 | 14.54025 | 19049 ft | 477 kts | 112° |
| 2026-04-22 23:31 | 37.58385 | 14.57895 | 19055 ft | 478 kts | 112° |
| 2026-04-22 23:32 | 37.57125 | 14.61769 | 19041 ft | 478 kts | 112° |
| 2026-04-22 23:32 | 37.55863 | 14.65642 | 19040 ft | 478 kts | 112° |
| 2026-04-22 23:32 | 37.54597 | 14.69519 | 19050 ft | 478 kts | 112° |
| 2026-04-22 23:32 | 37.53329 | 14.73393 | 19043 ft | 479 kts | 112° |
| 2026-04-22 23:33 | 37.52057 | 14.77272 | 19055 ft | 479 kts | 112° |
| 2026-04-22 23:33 | 37.50796 | 14.81117 | 19037 ft | 469 kts | 112° |
| 2026-04-22 23:33 | 37.49560 | 14.84878 | 19049 ft | 462 kts | 112° |
| 2026-04-22 23:33 | 37.48326 | 14.88629 | 19061 ft | 464 kts | 112° |
| 2026-04-22 23:34 | 37.47119 | 14.92397 | 19075 ft | 464 kts | 109° |
| 2026-04-22 23:34 | 37.46274 | 14.96328 | 18545 ft | 466 kts | 99° |
| 2026-04-22 23:34 | 37.45934 | 15.00365 | 17752 ft | 461 kts | 90° |
| 2026-04-22 23:34 | 37.46100 | 15.04341 | 16888 ft | 451 kts | 81° |
| 2026-04-22 23:35 | 37.46555 | 15.08202 | 16032 ft | 442 kts | 77° |
| 2026-04-22 23:35 | 37.47120 | 15.11933 | 15271 ft | 433 kts | 76° |
| 2026-04-22 23:35 | 37.47695 | 15.15645 | 14336 ft | 430 kts | 77° |
| 2026-04-22 23:35 | 37.48245 | 15.19309 | 13487 ft | 424 kts | 77° |
| 2026-04-22 23:36 | 37.48768 | 15.22941 | 12640 ft | 419 kts | 77° |
| 2026-04-22 23:36 | 37.49272 | 15.26527 | 11801 ft | 414 kts | 78° |
| 2026-04-22 23:36 | 37.49779 | 15.30071 | 10974 ft | 408 kts | 75° |
| 2026-04-22 23:36 | 37.50819 | 15.33260 | 10745 ft | 382 kts | 54° |
| 2026-04-22 23:37 | 37.52470 | 15.35724 | 10565 ft | 357 kts | 39° |
| 2026-04-22 23:37 | 37.54415 | 15.37489 | 10396 ft | 334 kts | 24° |
| 2026-04-22 23:37 | 37.56466 | 15.38653 | 10269 ft | 312 kts | 18° |
| 2026-04-22 23:37 | 37.58414 | 15.39618 | 10096 ft | 291 kts | 17° |
| 2026-04-22 23:38 | 37.60248 | 15.40507 | 9812 ft | 277 kts | 16° |
| 2026-04-22 23:38 | 37.62043 | 15.41381 | 9244 ft | 276 kts | 17° |
| 2026-04-22 23:38 | 37.63831 | 15.42262 | 8671 ft | 275 kts | 17° |
| 2026-04-22 23:38 | 37.65600 | 15.43147 | 8141 ft | 272 kts | 18° |
| 2026-04-22 23:39 | 37.67348 | 15.44030 | 7640 ft | 269 kts | 18° |
| 2026-04-22 23:39 | 37.69077 | 15.44906 | 7121 ft | 266 kts | 18° |
| 2026-04-22 23:39 | 37.70785 | 15.45773 | 6612 ft | 263 kts | 19° |
| 2026-04-22 23:39 | 37.72441 | 15.46734 | 6088 ft | 263 kts | 28° |
| 2026-04-22 23:40 | 37.73950 | 15.48002 | 5728 ft | 257 kts | 33° |
| 2026-04-22 23:40 | 37.75376 | 15.49292 | 5466 ft | 254 kts | 33° |
| 2026-04-22 23:40 | 37.76810 | 15.50584 | 5248 ft | 252 kts | 33° |
| 2026-04-22 23:40 | 37.78214 | 15.51831 | 5018 ft | 241 kts | 33° |
| 2026-04-22 23:41 | 37.79557 | 15.53011 | 4818 ft | 229 kts | 32° |
| 2026-04-22 23:41 | 37.80838 | 15.54128 | 4614 ft | 217 kts | 32° |
| 2026-04-22 23:41 | 37.82051 | 15.55184 | 4433 ft | 208 kts | 33° |
| 2026-04-22 23:41 | 37.83224 | 15.56204 | 4295 ft | 200 kts | 33° |
| 2026-04-22 23:42 | 37.84323 | 15.57160 | 4229 ft | 183 kts | 33° |
| 2026-04-22 23:42 | 37.85464 | 15.57742 | 4013 ft | 173 kts | 2° |
| 2026-04-22 23:42 | 37.86596 | 15.57543 | 3906 ft | 160 kts | 342° |
| 2026-04-22 23:42 | 37.87618 | 15.57041 | 3829 ft | 156 kts | 343° |
| 2026-04-22 23:43 | 37.88630 | 15.56563 | 3742 ft | 154 kts | 343° |
| 2026-04-22 23:43 | 37.89634 | 15.56088 | 3664 ft | 154 kts | 343° |
| 2026-04-22 23:43 | 37.90636 | 15.55611 | 3584 ft | 154 kts | 343° |
| 2026-04-22 23:43 | 37.91588 | 15.55155 | 3516 ft | 139 kts | 344° |
| 2026-04-22 23:44 | 37.92468 | 15.54733 | 3427 ft | 133 kts | 344° |
| 2026-04-22 23:44 | 37.93353 | 15.54572 | 3326 ft | 128 kts | 20° |
| 2026-04-22 23:44 | 37.94150 | 15.54943 | 3319 ft | 123 kts | 14° |
| 2026-04-22 23:44 | 37.94972 | 15.55170 | 3246 ft | 119 kts | 15° |
| 2026-04-22 23:45 | 37.95776 | 15.55429 | 3183 ft | 119 kts | 16° |
| 2026-04-22 23:45 | 37.96583 | 15.55696 | 3095 ft | 121 kts | 17° |
| 2026-04-22 23:45 | 37.97401 | 15.55970 | 2927 ft | 122 kts | 18° |
| 2026-04-22 23:45 | 37.98219 | 15.56247 | 2745 ft | 122 kts | 19° |
| 2026-04-22 23:46 | 37.99048 | 15.56528 | 2562 ft | 125 kts | 20° |
| 2026-04-22 23:46 | 37.99860 | 15.56936 | 2341 ft | 126 kts | 49° |
| 2026-04-22 23:46 | 38.00094 | 15.57953 | 2214 ft | 125 kts | 84° |
| 2026-04-22 23:46 | 38.00373 | 15.59023 | 2019 ft | 128 kts | 72° |
| 2026-04-22 23:47 | 38.00565 | 15.59738 | 1871 ft | 129 kts | 75° |
| 2026-04-22 23:47 | 38.00842 | 15.60827 | 1711 ft | 130 kts | 75° |
| 2026-04-22 23:47 | 38.01122 | 15.61930 | 1541 ft | 133 kts | 75° |
| 2026-04-22 23:47 | 38.01401 | 15.63049 | 1384 ft | 133 kts | 75° |
| 2026-04-22 23:48 | 38.01680 | 15.64180 | 1246 ft | 136 kts | 73° |
| 2026-04-22 23:48 | 38.02199 | 15.65628 | 1075 ft | 138 kts | 52° |
| 2026-04-22 23:48 | 38.02699 | 15.66156 | 949 ft | 138 kts | 28° |
| 2026-04-22 23:48 | 38.03609 | 15.66518 | 833 ft | 142 kts | 10° |
| 2026-04-22 23:49 | 38.04609 | 15.66555 | 607 ft | 144 kts | 348° |
| 2026-04-22 23:49 | 38.05553 | 15.66161 | 341 ft | 142 kts | 336° |
| 2026-04-22 23:49 | 38.06411 | 15.65614 | 81 ft | 132 kts | 332° |
| 2026-04-22 23:49 | 38.07160 | 15.65130 | 42 ft | 105 kts | 333° |
| 2026-04-22 23:50 | 38.07623 | 15.64831 | 55 ft | 44 kts | 333° |
| 2026-04-22 23:50 | 38.07791 | 15.64744 | 65 ft | 6 kts | 345° |
| 2026-04-22 23:50 | 38.07818 | 15.64718 | 66 ft | 5 kts | 265° |
| 2026-04-22 23:50 | 38.07780 | 15.64725 | 65 ft | 9 kts | 147° |
| 2026-04-22 23:51 | 38.07707 | 15.64778 | 62 ft | 15 kts | 152° |
| 2026-04-22 23:51 | 38.07600 | 15.64849 | 58 ft | 19 kts | 154° |
| 2026-04-22 23:51 | 38.07469 | 15.64932 | 54 ft | 23 kts | 153° |
| 2026-04-22 23:51 | 38.07399 | 15.65019 | 51 ft | 11 kts | 85° |
| 2026-04-22 23:52 | 38.07418 | 15.65069 | 48 ft | 4 kts | 63° |
| 2026-04-22 23:52 | 38.07424 | 15.65091 | 48 ft | 0 kts | 70° |
| 2026-04-22 23:52 | 38.07427 | 15.65104 | 48 ft | 3 kts | 78° |
| 2026-04-22 23:52 | 38.07417 | 15.65130 | 48 ft | 4 kts | 111° |
| 2026-04-22 23:53 | 38.07409 | 15.65179 | 48 ft | 7 kts | 110° |
| 2026-04-22 23:53 | 38.07379 | 15.65225 | 48 ft | 5 kts | 122° |
| 2026-04-22 23:53 | 38.07369 | 15.65276 | 47 ft | 7 kts | 112° |
| 2026-04-22 23:53 | 38.07358 | 15.65299 | 48 ft | 1 kts | 121° |
| 2026-04-22 23:54 | 38.07356 | 15.65304 | 48 ft | 0 kts | 121° |